createdAt,value
2019-04-03T00:00:54.586Z,9.43
2019-04-03T00:03:25.787Z,9.38
2019-04-03T00:05:57.033Z,9.36
2019-04-03T00:08:28.926Z,9.36
2019-04-03T00:11:00.242Z,9.36
2019-04-03T00:13:33.418Z,9.38
2019-04-03T00:16:06.307Z,9.37
2019-04-03T00:18:37.502Z,9.25
2019-04-03T00:21:08.906Z,9.14
2019-04-03T00:23:40.079Z,9.14
2019-04-03T00:26:11.312Z,9.21
2019-04-03T00:28:42.505Z,9.28
2019-04-03T00:31:13.734Z,9.25
2019-04-03T00:33:45.106Z,8.70
2019-04-03T00:36:16.751Z,8.60
2019-04-03T00:38:48.003Z,8.70
2019-04-03T00:41:19.288Z,8.69
2019-04-03T00:43:50.622Z,8.73
2019-04-03T00:46:22.802Z,8.73
2019-04-03T00:48:55.642Z,8.94
2019-04-03T00:51:28.505Z,8.89
2019-04-03T00:54:01.985Z,9.01
2019-04-03T00:56:33.285Z,8.92
2019-04-03T00:59:04.466Z,8.89
2019-04-03T01:01:35.651Z,8.84
2019-04-03T01:04:06.872Z,8.83
2019-04-03T01:06:38.062Z,8.80
2019-04-03T01:09:09.451Z,8.81
2019-04-03T01:11:40.658Z,8.39
2019-04-03T01:14:12.003Z,8.36
2019-04-03T01:16:45.984Z,8.16
2019-04-03T01:19:16.334Z,8.10
2019-04-03T01:21:50.619Z,8.28
2019-04-03T01:24:32.161Z,8.31
2019-04-03T01:27:04.330Z,8.50
2019-04-03T01:29:56.339Z,8.30
2019-04-03T01:32:27.584Z,8.05
2019-04-03T01:35:11.275Z,8.29
2019-04-03T01:37:58.590Z,8.21
2019-04-03T01:40:34.498Z,8.36
2019-04-03T01:43:09.089Z,8.33
2019-04-03T01:45:57.336Z,8.20
2019-04-03T01:48:30.341Z,8.21
2019-04-03T01:51:09.608Z,8.16
2019-04-03T01:53:53.214Z,8.10
2019-04-03T01:56:31.860Z,7.89
2019-04-03T01:59:20.001Z,8.07
2019-04-03T02:02:20.809Z,7.91
2019-04-03T02:05:14.042Z,7.97
2019-04-03T02:08:07.992Z,7.91
2019-04-03T02:10:49.223Z,8.20
2019-04-03T02:13:32.143Z,7.96
2019-04-03T02:16:05.986Z,7.85
2019-04-03T02:19:07.666Z,7.57
2019-04-03T02:21:38.857Z,7.75
2019-04-03T02:24:11.371Z,7.73
2019-04-03T02:26:42.657Z,7.87
2019-04-03T02:29:13.953Z,7.89
2019-04-03T02:31:45.334Z,7.96
2019-04-03T02:34:16.812Z,7.70
2019-04-03T02:36:48.047Z,7.80
2019-04-03T02:39:19.415Z,7.82
2019-04-03T02:41:50.632Z,7.66
2019-04-03T02:44:21.812Z,7.66
2019-04-03T02:46:53.196Z,7.61
2019-04-03T02:49:25.625Z,7.50
2019-04-03T02:51:57.655Z,7.52
2019-04-03T02:54:29.796Z,7.50
2019-04-03T02:57:01.322Z,7.50
2019-04-03T02:59:32.637Z,7.46
2019-04-03T03:02:03.883Z,7.53
2019-04-03T03:04:35.165Z,7.51
2019-04-03T03:07:06.476Z,7.53
2019-04-03T03:09:37.799Z,7.43
2019-04-03T03:12:09.061Z,7.43
2019-04-03T03:14:40.699Z,7.34
2019-04-03T03:17:12.396Z,7.12
2019-04-03T03:19:43.710Z,7.29
2019-04-03T03:22:18.067Z,7.15
2019-04-03T03:24:48.288Z,7.14
2019-04-03T03:27:19.512Z,7.28
2019-04-03T03:29:50.690Z,7.31
2019-04-03T03:32:31.571Z,6.96
2019-04-03T03:35:07.669Z,6.95
2019-04-03T03:37:28.102Z,6.97
2019-04-03T03:39:59.720Z,6.98
2019-04-03T03:42:32.171Z,6.98
2019-04-03T03:45:04.341Z,6.68
2019-04-03T03:47:37.185Z,6.52
2019-04-03T03:50:09.562Z,6.61
2019-04-03T03:52:40.801Z,6.82
2019-04-03T03:55:12.483Z,6.68
2019-04-03T03:57:43.923Z,6.75
2019-04-03T04:00:17.028Z,6.72
2019-04-03T04:02:48.253Z,6.74
2019-04-03T04:05:22.183Z,6.82
2019-04-03T04:07:53.503Z,6.89
2019-04-03T04:10:26.657Z,6.68
2019-04-03T04:12:59.610Z,6.75
2019-04-03T04:15:31.652Z,6.61
2019-04-03T04:18:03.951Z,6.82
2019-04-03T04:20:44.457Z,6.81
2019-04-03T04:23:15.677Z,6.72
2019-04-03T04:26:01.616Z,6.40
2019-04-03T04:28:57.011Z,6.35
2019-04-03T04:31:21.787Z,6.09
2019-04-03T04:33:52.998Z,6.35
2019-04-03T04:36:24.956Z,6.29
2019-04-03T04:38:57.918Z,6.42
2019-04-03T04:41:29.248Z,6.29
2019-04-03T04:44:01.151Z,6.35
2019-04-03T04:46:32.331Z,6.11
2019-04-03T04:49:03.553Z,5.95
2019-04-03T04:51:34.747Z,6.15
2019-04-03T04:54:05.937Z,6.21
2019-04-03T04:56:37.794Z,6.16
2019-04-03T04:59:09.811Z,5.86
2019-04-03T05:01:41.028Z,5.96
2019-04-03T05:04:15.040Z,5.99
2019-04-03T05:06:45.166Z,5.97
2019-04-03T05:09:16.341Z,5.95
2019-04-03T05:11:47.581Z,5.69
2019-04-03T05:14:18.801Z,5.77
2019-04-03T05:16:50.171Z,5.94
2019-04-03T05:19:21.390Z,6.04
2019-04-03T05:21:53.504Z,6.32
2019-04-03T05:24:24.688Z,6.27
2019-04-03T05:26:55.972Z,6.20
2019-04-03T05:29:27.583Z,6.08
2019-04-03T05:31:59.063Z,6.11
2019-04-03T05:34:30.349Z,6.11
2019-04-03T05:37:01.756Z,5.67
2019-04-03T05:39:32.934Z,5.55
2019-04-03T05:42:04.166Z,5.55
2019-04-03T05:44:35.597Z,5.70
2019-04-03T05:47:08.110Z,5.93
2019-04-03T05:49:39.767Z,5.98
2019-04-03T05:52:10.930Z,5.76
2019-04-03T05:54:44.374Z,5.99
2019-04-03T05:57:15.485Z,6.05
2019-04-03T05:59:59.163Z,6.05
2019-04-03T06:02:21.925Z,5.94
2019-04-03T06:04:53.012Z,5.79
2019-04-03T06:07:24.218Z,5.52
2019-04-03T06:09:58.493Z,5.60
2019-04-03T06:12:28.552Z,5.83
2019-04-03T06:14:59.821Z,5.73
2019-04-03T06:17:31.063Z,5.88
2019-04-03T06:20:02.266Z,5.77
2019-04-03T06:22:33.501Z,5.82
2019-04-03T06:25:05.098Z,5.88
2019-04-03T06:27:36.427Z,5.95
2019-04-03T06:30:07.803Z,6.07
2019-04-03T06:32:40.026Z,5.99
2019-04-03T06:35:13.267Z,5.97
2019-04-03T06:37:44.174Z,5.87
2019-04-03T06:40:15.416Z,6.02
2019-04-03T06:42:46.652Z,6.19
2019-04-03T06:45:18.180Z,6.22
2019-04-03T06:47:49.378Z,6.18
2019-04-03T06:50:20.564Z,6.15
2019-04-03T06:52:53.035Z,6.16
2019-04-03T06:55:25.568Z,6.20
2019-04-03T06:57:57.417Z,6.33
2019-04-03T07:00:28.877Z,6.42
2019-04-03T07:03:01.505Z,6.27
2019-04-03T07:05:33.148Z,6.50
2019-04-03T07:08:05.867Z,6.66
2019-04-03T07:10:40.076Z,6.68
2019-04-03T07:13:10.184Z,6.73
2019-04-03T07:15:41.703Z,6.83
2019-04-03T07:18:13.108Z,6.80
2019-04-03T07:20:44.332Z,6.71
2019-04-03T07:23:15.526Z,6.94
2019-04-03T07:25:46.783Z,7.06
2019-04-03T07:28:18.006Z,6.83
2019-04-03T07:30:52.944Z,7.09
2019-04-03T07:33:23.482Z,7.74
2019-04-03T07:35:55.870Z,8.78
2019-04-03T07:38:27.067Z,10.12
2019-04-03T07:40:58.402Z,11.46
2019-04-03T07:43:29.803Z,12.02
2019-04-03T07:46:01.710Z,12.17
2019-04-03T07:48:34.079Z,12.03
2019-04-03T07:51:05.607Z,12.71
2019-04-03T07:53:36.853Z,13.38
2019-04-03T07:56:08.683Z,14.32
2019-04-03T07:58:40.009Z,13.70
2019-04-03T08:01:11.636Z,15.05
2019-04-03T08:03:43.085Z,14.33
2019-04-03T08:06:15.538Z,15.71
2019-04-03T08:08:46.726Z,15.21
2019-04-03T08:11:18.766Z,14.83
2019-04-03T08:13:51.247Z,16.18
2019-04-03T08:16:22.449Z,16.20
2019-04-03T08:18:53.776Z,17.03
2019-04-03T08:21:25.333Z,17.07
2019-04-03T08:23:56.648Z,16.38
2019-04-03T08:26:27.928Z,17.14
2019-04-03T08:29:01.731Z,17.74
2019-04-03T08:31:32.479Z,17.38
2019-04-03T08:34:14.875Z,16.99
2019-04-03T08:36:38.407Z,17.55
2019-04-03T08:39:09.506Z,17.11
2019-04-03T08:41:40.833Z,17.62
2019-04-03T08:44:11.987Z,17.72
2019-04-03T08:46:44.024Z,17.71
2019-04-03T08:49:15.502Z,17.78
2019-04-03T08:51:47.837Z,18.35
2019-04-03T08:54:19.505Z,18.11
2019-04-03T08:56:50.805Z,18.31
2019-04-03T08:59:22.195Z,17.97
2019-04-03T09:01:55.278Z,18.98
2019-04-03T09:04:26.522Z,18.19
2019-04-03T09:06:57.686Z,18.12
2019-04-03T09:09:30.083Z,18.06
2019-04-03T09:12:02.444Z,18.39
2019-04-03T09:14:33.692Z,18.34
2019-04-03T09:17:05.257Z,17.92
2019-04-03T09:19:36.580Z,18.25
2019-04-03T09:22:07.949Z,18.05
2019-04-03T09:24:40.710Z,18.29
2019-04-03T09:27:12.192Z,18.06
2019-04-03T09:29:45.168Z,19.21
2019-04-03T09:32:16.946Z,19.72
2019-04-03T09:34:48.388Z,19.68
2019-04-03T09:37:20.790Z,19.64
2019-04-03T09:39:52.042Z,18.81
2019-04-03T09:42:23.282Z,18.78
2019-04-03T09:44:56.192Z,19.49
2019-04-03T09:47:28.406Z,17.73
2019-04-03T09:49:59.706Z,17.24
2019-04-03T09:52:39.950Z,16.67
2019-04-03T09:55:04.074Z,17.98
2019-04-03T09:57:35.373Z,17.65
2019-04-03T10:00:09.890Z,17.61
2019-04-03T10:02:40.307Z,18.11
2019-04-03T10:05:12.501Z,16.52
2019-04-03T10:07:45.457Z,17.89
2019-04-03T10:10:17.088Z,19.00
2019-04-03T10:12:49.139Z,19.14
2019-04-03T10:15:20.821Z,18.74
2019-04-03T10:17:52.001Z,17.42
2019-04-03T10:20:23.546Z,18.53
2019-04-03T10:22:56.356Z,18.65
2019-04-03T10:25:27.630Z,18.64
2019-04-03T10:27:58.987Z,19.36
2019-04-03T10:30:30.153Z,19.80
2019-04-03T10:33:01.344Z,19.22
2019-04-03T10:35:32.788Z,19.38
2019-04-03T10:38:04.169Z,18.59
2019-04-03T10:40:35.702Z,18.82
2019-04-03T10:43:06.892Z,18.76
2019-04-03T10:45:39.180Z,20.50
2019-04-03T10:48:10.567Z,19.29
2019-04-03T10:50:41.763Z,19.14
2019-04-03T10:53:13.098Z,19.34
2019-04-03T10:55:45.225Z,19.85
2019-04-03T10:58:16.797Z,18.98
2019-04-03T11:00:49.310Z,17.96
2019-04-03T11:03:20.667Z,17.14
2019-04-03T11:05:51.963Z,16.61
2019-04-03T11:08:23.144Z,15.67
2019-04-03T11:10:55.919Z,16.07
2019-04-03T11:13:29.113Z,15.46
2019-04-03T11:16:00.456Z,15.97
2019-04-03T11:18:31.628Z,17.12
2019-04-03T11:21:02.859Z,18.87
2019-04-03T11:23:38.986Z,19.63
2019-04-03T11:26:06.973Z,19.33
2019-04-03T11:28:39.074Z,18.22
2019-04-03T11:31:10.734Z,17.22
2019-04-03T11:33:45.867Z,16.93
2019-04-03T11:36:16.067Z,17.63
2019-04-03T11:38:47.754Z,18.96
2019-04-03T11:41:21.414Z,19.32
2019-04-03T11:43:52.260Z,20.32
2019-04-03T11:46:23.419Z,21.31
2019-04-03T11:48:54.631Z,20.76
2019-04-03T11:51:28.927Z,20.88
2019-04-03T11:53:58.956Z,20.17
2019-04-03T11:56:30.249Z,20.23
2019-04-03T11:59:01.444Z,19.96
2019-04-03T12:01:33.145Z,20.50
2019-04-03T12:04:04.925Z,21.37
2019-04-03T12:06:36.442Z,21.40
2019-04-03T12:09:08.391Z,20.62
2019-04-03T12:11:40.100Z,20.91
2019-04-03T12:14:11.691Z,19.56
2019-04-03T12:16:43.031Z,18.29
2019-04-03T12:19:14.398Z,17.78
2019-04-03T12:21:45.629Z,18.19
2019-04-03T12:24:17.111Z,17.92
2019-04-03T12:26:49.521Z,18.49
2019-04-03T12:29:22.737Z,18.52
2019-04-03T12:31:54.388Z,18.83
2019-04-03T12:34:25.584Z,18.76
2019-04-03T12:36:56.963Z,18.80
2019-04-03T12:39:28.368Z,17.17
2019-04-03T12:42:00.463Z,16.40
2019-04-03T12:44:31.997Z,16.86
2019-04-03T12:47:06.933Z,17.33
2019-04-03T12:49:36.189Z,17.52
2019-04-03T12:52:07.513Z,16.43
2019-04-03T12:54:38.728Z,16.33
2019-04-03T12:57:09.940Z,16.59
2019-04-03T12:59:41.363Z,16.40
2019-04-03T13:02:12.569Z,16.65
2019-04-03T13:04:43.826Z,16.33
2019-04-03T13:07:15.162Z,16.98
2019-04-03T13:09:46.728Z,17.44
2019-04-03T13:12:20.621Z,17.10
2019-04-03T13:14:51.176Z,17.88
2019-04-03T13:17:22.470Z,18.26
2019-04-03T13:19:53.647Z,18.35
2019-04-03T13:22:24.883Z,18.02
2019-04-03T13:24:56.460Z,18.16
2019-04-03T13:27:30.682Z,18.09
2019-04-03T13:30:01.584Z,18.57
2019-04-03T13:32:32.886Z,18.91
2019-04-03T13:35:05.480Z,18.14
2019-04-03T13:37:39.069Z,17.17
2019-04-03T13:40:10.250Z,16.77
2019-04-03T13:42:42.284Z,16.82
2019-04-03T13:45:13.664Z,17.36
2019-04-03T13:47:47.003Z,18.23
2019-04-03T13:50:21.630Z,18.00
2019-04-03T13:52:52.371Z,17.67
2019-04-03T13:55:23.733Z,18.06
2019-04-03T13:57:56.093Z,17.96
2019-04-03T14:00:27.710Z,17.90
2019-04-03T14:02:59.280Z,17.97
2019-04-03T14:05:32.865Z,17.86
2019-04-03T14:08:06.044Z,17.63
2019-04-03T14:10:37.349Z,17.79
2019-04-03T14:13:11.860Z,17.73
2019-04-03T14:15:42.242Z,16.54
2019-04-03T14:18:14.887Z,15.85
2019-04-03T14:20:46.128Z,16.23
2019-04-03T14:23:17.311Z,16.27
2019-04-03T14:25:49.260Z,16.59
2019-04-03T14:28:20.868Z,16.79
2019-04-03T14:30:52.791Z,16.89
2019-04-03T14:33:25.500Z,16.91
2019-04-03T14:35:57.213Z,16.37
2019-04-03T14:38:29.079Z,16.11
2019-04-03T14:41:00.816Z,15.96
2019-04-03T14:43:33.609Z,15.90
2019-04-03T14:46:06.533Z,15.77
2019-04-03T14:48:38.365Z,15.66
2019-04-03T14:51:11.752Z,15.63
2019-04-03T14:53:42.580Z,15.50
2019-04-03T14:56:17.315Z,15.42
2019-04-03T14:58:50.517Z,15.42
2019-04-03T15:01:23.949Z,15.32
2019-04-03T15:03:55.133Z,14.93
2019-04-03T15:06:26.732Z,14.74
2019-04-03T15:08:58.106Z,14.65
2019-04-03T15:11:29.584Z,15.12
2019-04-03T15:14:00.883Z,15.37
2019-04-03T15:16:32.321Z,15.62
2019-04-03T15:19:03.569Z,15.81
2019-04-03T15:21:36.459Z,16.03
2019-04-03T15:24:11.218Z,15.51
2019-04-03T15:26:42.145Z,15.15
2019-04-03T15:29:13.644Z,14.83
2019-04-03T15:31:46.687Z,14.85
2019-04-03T15:34:18.469Z,15.31
2019-04-03T15:36:51.521Z,15.61
2019-04-03T15:39:22.742Z,15.61
2019-04-03T15:41:54.229Z,15.44
2019-04-03T15:44:27.483Z,15.36
2019-04-03T15:46:59.238Z,15.86
2019-04-03T15:49:31.909Z,16.21
2019-04-03T15:52:04.324Z,16.09
2019-04-03T15:54:35.506Z,15.95
2019-04-03T15:57:07.076Z,15.75
2019-04-03T15:59:38.615Z,15.89
2019-04-03T16:02:12.045Z,16.07
2019-04-03T16:04:43.174Z,15.68
2019-04-03T16:07:14.400Z,15.57
2019-04-03T16:09:45.630Z,15.72
2019-04-03T16:12:16.877Z,15.94
2019-04-03T16:14:48.789Z,15.57
2019-04-03T16:17:21.213Z,15.90
2019-04-03T16:19:53.094Z,15.92
2019-04-03T16:22:24.854Z,16.04
2019-04-03T16:24:56.046Z,15.67
2019-04-03T16:27:29.232Z,15.56
2019-04-03T16:30:00.676Z,15.41
2019-04-03T16:32:33.864Z,15.25
2019-04-03T16:35:05.918Z,15.21
2019-04-03T16:37:38.458Z,15.12
2019-04-03T16:40:11.244Z,15.32
2019-04-03T16:42:43.256Z,15.24
2019-04-03T16:45:15.808Z,15.04
2019-04-03T16:47:47.057Z,14.90
2019-04-03T16:50:19.151Z,15.00
2019-04-03T16:52:50.743Z,15.24
2019-04-03T16:55:22.732Z,15.18
2019-04-03T16:57:55.411Z,15.23
2019-04-03T17:00:27.526Z,14.84
2019-04-03T17:02:58.845Z,14.39
2019-04-03T17:05:30.058Z,14.13
2019-04-03T17:08:01.294Z,13.95
2019-04-03T17:10:33.083Z,13.81
2019-04-03T17:13:04.318Z,13.64
2019-04-03T17:15:35.866Z,13.56
2019-04-03T17:18:07.249Z,13.56
2019-04-03T17:20:38.454Z,13.62
2019-04-03T17:23:12.791Z,13.69
2019-04-03T17:25:48.187Z,13.84
2019-04-03T17:28:15.542Z,13.93
2019-04-03T17:30:49.662Z,13.99
2019-04-03T17:33:19.684Z,13.95
2019-04-03T17:35:51.263Z,13.91
2019-04-03T17:38:22.956Z,13.82
2019-04-03T17:40:54.554Z,13.79
2019-04-03T17:43:26.230Z,13.73
2019-04-03T17:45:57.429Z,13.76
2019-04-03T17:48:31.057Z,13.79
2019-04-03T17:51:02.643Z,13.64
2019-04-03T17:53:34.865Z,13.70
2019-04-03T17:56:07.521Z,13.75
2019-04-03T17:58:38.706Z,13.68
2019-04-03T18:01:10.134Z,13.58
2019-04-03T18:03:41.350Z,13.46
2019-04-03T18:06:12.606Z,13.36
2019-04-03T18:08:45.116Z,13.16
2019-04-03T18:11:16.339Z,13.01
2019-04-03T18:13:48.744Z,13.00
2019-04-03T18:16:20.080Z,12.84
2019-04-03T18:18:51.652Z,12.88
2019-04-03T18:21:22.906Z,12.93
2019-04-03T18:23:54.397Z,12.91
2019-04-03T18:26:25.638Z,12.90
2019-04-03T18:28:56.883Z,12.84
2019-04-03T18:31:28.124Z,12.81
2019-04-03T18:33:59.394Z,12.73
2019-04-03T18:36:31.352Z,12.68
2019-04-03T18:39:03.985Z,12.75
2019-04-03T18:41:35.330Z,12.62
2019-04-03T18:44:06.517Z,12.44
2019-04-03T18:46:37.713Z,12.38
2019-04-03T18:49:08.971Z,12.32
2019-04-03T18:51:40.178Z,12.22
2019-04-03T18:54:12.135Z,12.16
2019-04-03T18:56:45.669Z,12.21
2019-04-03T18:59:16.617Z,12.14
2019-04-03T19:01:48.012Z,12.09
2019-04-03T19:04:19.607Z,11.93
2019-04-03T19:06:50.847Z,11.94
2019-04-03T19:09:22.318Z,11.80
2019-04-03T19:11:53.584Z,11.71
2019-04-03T19:14:27.499Z,11.74
2019-04-03T19:16:58.959Z,11.57
2019-04-03T19:19:30.276Z,11.56
2019-04-03T19:22:01.524Z,11.50
2019-04-03T19:24:32.771Z,11.44
2019-04-03T19:27:03.980Z,11.37
2019-04-03T19:29:36.274Z,11.34
2019-04-03T19:32:11.945Z,11.39
2019-04-03T19:34:41.540Z,11.27
2019-04-03T19:37:12.794Z,11.23
2019-04-03T19:39:44.052Z,11.12
2019-04-03T19:42:16.329Z,11.04
2019-04-03T19:44:49.194Z,11.05
2019-04-03T19:47:20.937Z,11.02
2019-04-03T19:49:52.228Z,11.01
2019-04-03T19:52:23.509Z,10.99
2019-04-03T19:54:54.849Z,10.94
2019-04-03T19:57:27.400Z,10.90
2019-04-03T20:00:01.060Z,10.80
2019-04-03T20:02:32.290Z,10.84
2019-04-03T20:05:03.606Z,10.81
2019-04-03T20:07:34.798Z,10.77
2019-04-03T20:10:07.345Z,10.78
2019-04-03T20:12:38.663Z,10.68
2019-04-03T20:15:09.997Z,10.68
2019-04-03T20:17:41.627Z,10.64
2019-04-03T20:20:12.950Z,10.62
2019-04-03T20:22:44.305Z,10.66
2019-04-03T20:25:15.614Z,10.51
2019-04-03T20:27:47.622Z,10.51
2019-04-03T20:30:20.315Z,10.49
2019-04-03T20:32:52.117Z,10.52
2019-04-03T20:35:23.454Z,10.42
2019-04-03T20:37:56.807Z,10.38
2019-04-03T20:40:28.041Z,10.32
2019-04-03T20:42:59.448Z,10.25
2019-04-03T20:45:30.709Z,10.30
2019-04-03T20:48:02.396Z,10.20
2019-04-03T20:50:33.960Z,10.20
2019-04-03T20:53:05.237Z,10.13
2019-04-03T20:55:36.531Z,10.14
2019-04-03T20:58:07.833Z,10.09
2019-04-03T21:00:39.075Z,10.01
2019-04-03T21:03:12.581Z,10.03
2019-04-03T21:05:44.398Z,10.00
2019-04-03T21:08:15.622Z,9.98
2019-04-03T21:10:46.910Z,9.89
2019-04-03T21:13:18.430Z,9.83
2019-04-03T21:15:54.114Z,9.87
2019-04-03T21:18:35.944Z,9.78
2019-04-03T21:21:17.696Z,9.84
2019-04-03T21:23:58.745Z,9.79
2019-04-03T21:26:39.797Z,9.60
2019-04-03T21:29:19.699Z,9.57
2019-04-03T21:32:06.273Z,9.58
2019-04-03T21:35:03.913Z,9.53
2019-04-03T21:37:41.675Z,9.58
2019-04-03T21:40:24.253Z,9.57
2019-04-03T21:43:02.316Z,9.47
2019-04-03T21:46:00.769Z,9.42
2019-04-03T21:48:39.597Z,9.50
2019-04-03T21:51:25.067Z,9.47
2019-04-03T21:54:05.043Z,9.45
2019-04-03T21:56:44.883Z,9.35
2019-04-03T21:59:23.120Z,9.30
2019-04-03T22:02:04.380Z,9.26
2019-04-03T22:04:41.872Z,9.29
2019-04-03T22:07:28.550Z,9.12
2019-04-03T22:10:21.929Z,9.02
2019-04-03T22:12:57.903Z,8.95
2019-04-03T22:15:34.884Z,8.89
2019-04-03T22:18:24.806Z,8.81
2019-04-03T22:21:12.693Z,8.76
2019-04-03T22:23:49.059Z,8.68
2019-04-03T22:26:24.182Z,8.80
2019-04-03T22:28:58.961Z,8.77
2019-04-03T22:31:35.263Z,8.66
2019-04-03T22:34:25.635Z,8.64
2019-04-03T22:37:04.480Z,8.72
2019-04-03T22:39:39.038Z,8.72
2019-04-03T22:42:11.206Z,8.86
2019-04-03T22:44:42.794Z,8.86
2019-04-03T22:47:14.162Z,8.79
2019-04-03T22:49:45.475Z,8.83
2019-04-03T22:52:16.749Z,8.78
2019-04-03T22:54:48.580Z,8.59
2019-04-03T22:57:20.217Z,8.46
2019-04-03T22:59:54.475Z,8.50
2019-04-03T23:02:24.809Z,8.39
2019-04-03T23:04:55.872Z,8.28
2019-04-03T23:07:27.102Z,8.18
2019-04-03T23:09:58.186Z,8.12
2019-04-03T23:12:29.669Z,8.10
2019-04-03T23:15:00.859Z,8.17
2019-04-03T23:17:32.227Z,8.20
2019-04-03T23:20:03.761Z,8.09
2019-04-03T23:22:35.376Z,8.09
2019-04-03T23:25:06.631Z,7.96
2019-04-03T23:27:38.215Z,7.73
2019-04-03T23:30:10.753Z,7.71
2019-04-03T23:32:46.102Z,7.76
2019-04-03T23:35:20.377Z,7.63
2019-04-03T23:37:50.523Z,7.50
2019-04-03T23:40:25.251Z,7.39
2019-04-03T23:42:58.004Z,7.30
2019-04-03T23:45:31.266Z,7.30
2019-04-03T23:48:02.788Z,7.41
2019-04-03T23:50:35.470Z,7.44
2019-04-03T23:53:06.759Z,7.47
2019-04-03T23:55:40.227Z,7.43
2019-04-03T23:58:12.372Z,7.43
